sensor_id;sensor_type;location;lat;lon;timestamp;temperature;humidity
46366;DHT22;32073;49.166;8.076;2022-11-20T00:03:05;10.60;62.30
46366;DHT22;32073;49.166;8.076;2022-11-20T00:07:06;10.70;62.20
46366;DHT22;32073;49.166;8.076;2022-11-20T00:11:07;10.70;62.10
46366;DHT22;32073;49.166;8.076;2022-11-20T00:15:11;10.70;62.20
46366;DHT22;32073;49.166;8.076;2022-11-20T00:19:11;10.70;62.10
46366;DHT22;32073;49.166;8.076;2022-11-20T00:23:12;10.70;62.10
46366;DHT22;32073;49.166;8.076;2022-11-20T00:27:12;10.80;62.10
46366;DHT22;32073;49.166;8.076;2022-11-20T00:31:14;10.70;62.00
46366;DHT22;32073;49.166;8.076;2022-11-20T00:35:15;10.70;62.10
46366;DHT22;32073;49.166;8.076;2022-11-20T00:39:15;10.70;62.10
46366;DHT22;32073;49.166;8.076;2022-11-20T00:43:16;10.80;62.10
46366;DHT22;32073;49.166;8.076;2022-11-20T00:47:16;10.80;62.10
46366;DHT22;32073;49.166;8.076;2022-11-20T00:51:18;10.80;62.10
46366;DHT22;32073;49.166;8.076;2022-11-20T00:55:21;10.80;62.10
46366;DHT22;32073;49.166;8.076;2022-11-20T00:59:21;10.80;62.10
46366;DHT22;32073;49.166;8.076;2022-11-20T01:03:22;10.70;62.00
46366;DHT22;32073;49.166;8.076;2022-11-20T01:07:22;10.70;62.00
46366;DHT22;32073;49.166;8.076;2022-11-20T01:11:24;10.70;62.00
46366;DHT22;32073;49.166;8.076;2022-11-20T01:15:26;10.70;62.00
46366;DHT22;32073;49.166;8.076;2022-11-20T01:19:27;10.70;62.10
46366;DHT22;32073;49.166;8.076;2022-11-20T01:23:30;10.70;62.10
46366;DHT22;32073;49.166;8.076;2022-11-20T01:27:34;10.70;62.10
46366;DHT22;32073;49.166;8.076;2022-11-20T01:31:35;10.70;62.10
46366;DHT22;32073;49.166;8.076;2022-11-20T01:35:36;10.70;62.10
46366;DHT22;32073;49.166;8.076;2022-11-20T01:39:37;10.70;62.10
46366;DHT22;32073;49.166;8.076;2022-11-20T01:43:37;10.70;62.10
46366;DHT22;32073;49.166;8.076;2022-11-20T01:47:39;10.70;62.10
46366;DHT22;32073;49.166;8.076;2022-11-20T01:51:51;10.70;62.10
46366;DHT22;32073;49.166;8.076;2022-11-20T01:55:54;10.70;62.20
46366;DHT22;32073;49.166;8.076;2022-11-20T01:59:59;10.70;62.30
46366;DHT22;32073;49.166;8.076;2022-11-20T02:04:02;10.70;62.40
46366;DHT22;32073;49.166;8.076;2022-11-20T02:08:04;10.80;62.40
46366;DHT22;32073;49.166;8.076;2022-11-20T02:12:05;10.80;62.50
46366;DHT22;32073;49.166;8.076;2022-11-20T02:16:30;10.80;62.50
46366;DHT22;32073;49.166;8.076;2022-11-20T02:20:32;11.00;62.70
46366;DHT22;32073;49.166;8.076;2022-11-20T02:24:33;10.90;63.20
46366;DHT22;32073;49.166;8.076;2022-11-20T02:28:34;10.90;62.60
46366;DHT22;32073;49.166;8.076;2022-11-20T02:32:35;10.90;62.60
46366;DHT22;32073;49.166;8.076;2022-11-20T02:36:36;11.00;62.70
46366;DHT22;32073;49.166;8.076;2022-11-20T02:40:40;11.00;62.70
46366;DHT22;32073;49.166;8.076;2022-11-20T02:44:40;11.00;62.70
46366;DHT22;32073;49.166;8.076;2022-11-20T02:48:41;11.00;62.70
46366;DHT22;32073;49.166;8.076;2022-11-20T02:52:42;11.10;62.80
46366;DHT22;32073;49.166;8.076;2022-11-20T02:56:42;11.10;62.90
46366;DHT22;32073;49.166;8.076;2022-11-20T03:00:43;11.10;62.80
46366;DHT22;32073;49.166;8.076;2022-11-20T03:04:44;11.20;62.90
46366;DHT22;32073;49.166;8.076;2022-11-20T03:08:44;11.20;62.90
46366;DHT22;32073;49.166;8.076;2022-11-20T03:12:45;11.20;62.90
46366;DHT22;32073;49.166;8.076;2022-11-20T03:16:46;11.20;63.50
46366;DHT22;32073;49.166;8.076;2022-11-20T03:20:47;11.20;62.90
46366;DHT22;32073;49.166;8.076;2022-11-20T03:24:47;11.20;62.90
46366;DHT22;32073;49.166;8.076;2022-11-20T03:28:51;11.20;63.00
46366;DHT22;32073;49.166;8.076;2022-11-20T03:32:53;11.20;62.90
46366;DHT22;32073;49.166;8.076;2022-11-20T03:36:54;11.20;63.00
46366;DHT22;32073;49.166;8.076;2022-11-20T03:40:57;11.20;63.10
46366;DHT22;32073;49.166;8.076;2022-11-20T03:44:59;11.20;63.10
46366;DHT22;32073;49.166;8.076;2022-11-20T03:49:00;11.30;63.20
46366;DHT22;32073;49.166;8.076;2022-11-20T03:53:01;11.30;63.20
46366;DHT22;32073;49.166;8.076;2022-11-20T03:57:02;11.30;63.20
46366;DHT22;32073;49.166;8.076;2022-11-20T04:01:06;11.30;63.10
46366;DHT22;32073;49.166;8.076;2022-11-20T04:05:08;11.40;63.20
46366;DHT22;32073;49.166;8.076;2022-11-20T04:09:08;11.30;63.10
46366;DHT22;32073;49.166;8.076;2022-11-20T04:13:09;11.40;63.20
46366;DHT22;32073;49.166;8.076;2022-11-20T04:17:09;11.40;63.90
46366;DHT22;32073;49.166;8.076;2022-11-20T04:21:10;11.40;63.40
46366;DHT22;32073;49.166;8.076;2022-11-20T04:25:11;11.40;63.30
46366;DHT22;32073;49.166;8.076;2022-11-20T04:29:11;11.40;63.40
46366;DHT22;32073;49.166;8.076;2022-11-20T04:33:12;11.40;63.40
46366;DHT22;32073;49.166;8.076;2022-11-20T04:37:13;11.50;63.40
46366;DHT22;32073;49.166;8.076;2022-11-20T04:41:14;11.50;63.40
46366;DHT22;32073;49.166;8.076;2022-11-20T04:45:16;11.50;63.40
46366;DHT22;32073;49.166;8.076;2022-11-20T04:49:17;11.50;63.40
46366;DHT22;32073;49.166;8.076;2022-11-20T04:53:17;11.60;63.40
46366;DHT22;32073;49.166;8.076;2022-11-20T04:57:19;11.50;63.40
46366;DHT22;32073;49.166;8.076;2022-11-20T05:01:23;11.60;63.40
46366;DHT22;32073;49.166;8.076;2022-11-20T05:05:24;11.50;63.30
46366;DHT22;32073;49.166;8.076;2022-11-20T05:09:24;11.70;63.40
46366;DHT22;32073;49.166;8.076;2022-11-20T05:13:26;11.50;63.30
46366;DHT22;32073;49.166;8.076;2022-11-20T05:17:27;11.60;63.40
46366;DHT22;32073;49.166;8.076;2022-11-20T05:21:29;11.50;63.30
46366;DHT22;32073;49.166;8.076;2022-11-20T05:25:30;11.50;63.30
46366;DHT22;32073;49.166;8.076;2022-11-20T05:29:31;11.50;63.40
46366;DHT22;32073;49.166;8.076;2022-11-20T05:33:32;11.50;63.50
46366;DHT22;32073;49.166;8.076;2022-11-20T05:37:33;11.50;63.50
46366;DHT22;32073;49.166;8.076;2022-11-20T05:41:33;11.50;63.60
46366;DHT22;32073;49.166;8.076;2022-11-20T05:45:34;11.50;63.60
46366;DHT22;32073;49.166;8.076;2022-11-20T05:49:35;11.50;63.70
46366;DHT22;32073;49.166;8.076;2022-11-20T05:53:36;11.50;63.70
46366;DHT22;32073;49.166;8.076;2022-11-20T05:57:36;11.60;63.80
46366;DHT22;32073;49.166;8.076;2022-11-20T06:01:37;11.60;63.80
46366;DHT22;32073;49.166;8.076;2022-11-20T06:05:38;11.60;63.80
46366;DHT22;32073;49.166;8.076;2022-11-20T06:09:39;11.60;63.90
46366;DHT22;32073;49.166;8.076;2022-11-20T06:13:39;11.60;63.90
46366;DHT22;32073;49.166;8.076;2022-11-20T06:17:40;11.70;64.00
46366;DHT22;32073;49.166;8.076;2022-11-20T06:21:41;11.60;63.90
46366;DHT22;32073;49.166;8.076;2022-11-20T06:25:41;11.70;64.00
46366;DHT22;32073;49.166;8.076;2022-11-20T06:29:43;11.70;63.90
46366;DHT22;32073;49.166;8.076;2022-11-20T06:33:43;11.70;63.90
46366;DHT22;32073;49.166;8.076;2022-11-20T06:37:44;11.80;63.90
46366;DHT22;32073;49.166;8.076;2022-11-20T06:41:45;11.80;64.00
46366;DHT22;32073;49.166;8.076;2022-11-20T06:45:45;11.80;64.00
46366;DHT22;32073;49.166;8.076;2022-11-20T06:49:46;11.80;64.00
46366;DHT22;32073;49.166;8.076;2022-11-20T06:53:47;11.80;64.00
46366;DHT22;32073;49.166;8.076;2022-11-20T06:57:47;11.80;64.00
46366;DHT22;32073;49.166;8.076;2022-11-20T07:01:48;11.80;64.00
46366;DHT22;32073;49.166;8.076;2022-11-20T07:05:48;11.80;63.90
46366;DHT22;32073;49.166;8.076;2022-11-20T07:09:49;11.80;64.00
46366;DHT22;32073;49.166;8.076;2022-11-20T07:13:49;11.80;64.10
46366;DHT22;32073;49.166;8.076;2022-11-20T07:17:50;11.80;64.10
46366;DHT22;32073;49.166;8.076;2022-11-20T07:21:51;11.80;64.20
46366;DHT22;32073;49.166;8.076;2022-11-20T07:25:51;11.80;64.20
46366;DHT22;32073;49.166;8.076;2022-11-20T07:29:52;11.80;64.20
46366;DHT22;32073;49.166;8.076;2022-11-20T07:33:52;11.90;64.20
46366;DHT22;32073;49.166;8.076;2022-11-20T07:37:53;11.90;64.20
46366;DHT22;32073;49.166;8.076;2022-11-20T07:41:54;11.90;64.20
46366;DHT22;32073;49.166;8.076;2022-11-20T07:45:55;11.90;64.20
46366;DHT22;32073;49.166;8.076;2022-11-20T07:49:56;11.90;64.30
46366;DHT22;32073;49.166;8.076;2022-11-20T07:53:57;12.00;64.30
46366;DHT22;32073;49.166;8.076;2022-11-20T07:57:57;12.00;64.30
46366;DHT22;32073;49.166;8.076;2022-11-20T08:01:58;12.00;64.30
46366;DHT22;32073;49.166;8.076;2022-11-20T08:05:59;12.00;64.30
46366;DHT22;32073;49.166;8.076;2022-11-20T08:10:03;12.00;64.30
46366;DHT22;32073;49.166;8.076;2022-11-20T08:14:04;12.00;64.40
46366;DHT22;32073;49.166;8.076;2022-11-20T08:18:14;12.10;64.50
46366;DHT22;32073;49.166;8.076;2022-11-20T08:22:14;12.10;64.50
46366;DHT22;32073;49.166;8.076;2022-11-20T08:26:16;12.10;64.50
46366;DHT22;32073;49.166;8.076;2022-11-20T08:30:16;12.10;64.40
46366;DHT22;32073;49.166;8.076;2022-11-20T08:34:17;12.20;64.40
46366;DHT22;32073;49.166;8.076;2022-11-20T08:38:18;12.20;64.50
46366;DHT22;32073;49.166;8.076;2022-11-20T08:42:18;12.20;64.50
46366;DHT22;32073;49.166;8.076;2022-11-20T08:46:19;12.20;64.60
46366;DHT22;32073;49.166;8.076;2022-11-20T08:50:20;12.30;64.60
46366;DHT22;32073;49.166;8.076;2022-11-20T08:54:20;12.20;64.50
46366;DHT22;32073;49.166;8.076;2022-11-20T08:58:22;12.30;64.60
46366;DHT22;32073;49.166;8.076;2022-11-20T09:02:23;12.30;64.50
46366;DHT22;32073;49.166;8.076;2022-11-20T09:06:23;12.40;64.70
46366;DHT22;32073;49.166;8.076;2022-11-20T09:10:24;12.40;64.70
46366;DHT22;32073;49.166;8.076;2022-11-20T09:14:25;12.40;64.70
46366;DHT22;32073;49.166;8.076;2022-11-20T09:18:29;12.50;64.70
46366;DHT22;32073;49.166;8.076;2022-11-20T09:22:31;12.50;65.30
46366;DHT22;32073;49.166;8.076;2022-11-20T09:26:33;12.60;64.80
46366;DHT22;32073;49.166;8.076;2022-11-20T09:30:33;12.60;64.80
46366;DHT22;32073;49.166;8.076;2022-11-20T09:34:34;12.70;64.60
46366;DHT22;32073;49.166;8.076;2022-11-20T09:38:34;12.60;64.50
46366;DHT22;32073;49.166;8.076;2022-11-20T09:42:37;12.60;64.40
46366;DHT22;32073;49.166;8.076;2022-11-20T09:46:45;12.60;64.40
46366;DHT22;32073;49.166;8.076;2022-11-20T09:55:10;12.60;64.50
46366;DHT22;32073;49.166;8.076;2022-11-20T10:03:46;12.60;64.50
46366;DHT22;32073;49.166;8.076;2022-11-20T10:12:46;12.60;64.50
46366;DHT22;32073;49.166;8.076;2022-11-20T10:17:30;12.60;64.50
46366;DHT22;32073;49.166;8.076;2022-11-20T10:21:47;12.60;64.30
46366;DHT22;32073;49.166;8.076;2022-11-20T10:31:03;12.50;64.20
46366;DHT22;32073;49.166;8.076;2022-11-20T10:39:50;12.50;64.30
46366;DHT22;32073;49.166;8.076;2022-11-20T10:44:09;12.50;64.40
46366;DHT22;32073;49.166;8.076;2022-11-20T10:48:31;12.60;64.70
46366;DHT22;32073;49.166;8.076;2022-11-20T10:53:17;12.70;64.90
46366;DHT22;32073;49.166;8.076;2022-11-20T10:57:11;12.80;65.00
46366;DHT22;32073;49.166;8.076;2022-11-20T11:01:24;13.00;65.10
46366;DHT22;32073;49.166;8.076;2022-11-20T11:09:37;13.30;65.10
46366;DHT22;32073;49.166;8.076;2022-11-20T11:13:42;13.30;64.80
46366;DHT22;32073;49.166;8.076;2022-11-20T11:17:46;13.40;64.70
46366;DHT22;32073;49.166;8.076;2022-11-20T11:21:50;13.50;64.60
46366;DHT22;32073;49.166;8.076;2022-11-20T11:25:56;13.50;64.50
46366;DHT22;32073;49.166;8.076;2022-11-20T11:30:03;13.60;64.30
46366;DHT22;32073;49.166;8.076;2022-11-20T11:34:14;13.60;64.10
46366;DHT22;32073;49.166;8.076;2022-11-20T11:38:17;13.70;64.20
46366;DHT22;32073;49.166;8.076;2022-11-20T11:42:21;13.70;64.20
46366;DHT22;32073;49.166;8.076;2022-11-20T11:46:29;13.70;64.10
46366;DHT22;32073;49.166;8.076;2022-11-20T11:50:33;13.80;64.10
46366;DHT22;32073;49.166;8.076;2022-11-20T11:54:45;13.80;63.80
46366;DHT22;32073;49.166;8.076;2022-11-20T12:00:00;13.90;64.40
46366;DHT22;32073;49.166;8.076;2022-11-20T12:08:23;14.00;63.80
46366;DHT22;32073;49.166;8.076;2022-11-20T12:12:28;14.00;63.80
46366;DHT22;32073;49.166;8.076;2022-11-20T12:16:33;14.10;63.90
46366;DHT22;32073;49.166;8.076;2022-11-20T12:20:43;14.20;63.80
46366;DHT22;32073;49.166;8.076;2022-11-20T12:33:38;14.30;63.20
46366;DHT22;32073;49.166;8.076;2022-11-20T12:50:43;14.50;63.00
46366;DHT22;32073;49.166;8.076;2022-11-20T12:59:16;14.50;62.30
46366;DHT22;32073;49.166;8.076;2022-11-20T13:03:47;14.40;62.20
46366;DHT22;32073;49.166;8.076;2022-11-20T13:07:52;14.40;61.90
46366;DHT22;32073;49.166;8.076;2022-11-20T13:16:10;14.30;61.70
46366;DHT22;32073;49.166;8.076;2022-11-20T13:20:17;14.30;61.40
46366;DHT22;32073;49.166;8.076;2022-11-20T13:32:20;14.10;61.00
46366;DHT22;32073;49.166;8.076;2022-11-20T13:36:23;14.10;61.10
46366;DHT22;32073;49.166;8.076;2022-11-20T13:40:25;14.10;61.10
46366;DHT22;32073;49.166;8.076;2022-11-20T13:48:40;14.00;60.90
46366;DHT22;32073;49.166;8.076;2022-11-20T13:52:55;14.00;60.60
46366;DHT22;32073;49.166;8.076;2022-11-20T14:01:31;13.90;60.50
46366;DHT22;32073;49.166;8.076;2022-11-20T14:05:36;13.90;60.30
46366;DHT22;32073;49.166;8.076;2022-11-20T14:09:38;13.80;60.20
46366;DHT22;32073;49.166;8.076;2022-11-20T14:13:39;13.80;60.20
46366;DHT22;32073;49.166;8.076;2022-11-20T14:17:40;13.70;60.10
46366;DHT22;32073;49.166;8.076;2022-11-20T14:21:40;13.70;60.10
46366;DHT22;32073;49.166;8.076;2022-11-20T14:25:44;13.70;60.10
46366;DHT22;32073;49.166;8.076;2022-11-20T14:29:45;13.60;60.00
46366;DHT22;32073;49.166;8.076;2022-11-20T14:33:47;13.60;59.90
46366;DHT22;32073;49.166;8.076;2022-11-20T14:37:47;13.60;59.80
46366;DHT22;32073;49.166;8.076;2022-11-20T14:41:51;13.60;59.80
46366;DHT22;32073;49.166;8.076;2022-11-20T14:45:57;13.60;59.80
46366;DHT22;32073;49.166;8.076;2022-11-20T14:49:59;13.50;59.70
46366;DHT22;32073;49.166;8.076;2022-11-20T14:54:20;13.50;59.70
46366;DHT22;32073;49.166;8.076;2022-11-20T14:58:23;13.40;59.50
46366;DHT22;32073;49.166;8.076;2022-11-20T15:02:26;13.40;59.50
46366;DHT22;32073;49.166;8.076;2022-11-20T15:06:26;13.40;59.50
46366;DHT22;32073;49.166;8.076;2022-11-20T15:10:27;13.30;59.40
46366;DHT22;32073;49.166;8.076;2022-11-20T15:14:28;13.30;59.40
46366;DHT22;32073;49.166;8.076;2022-11-20T15:18:37;13.30;59.40
46366;DHT22;32073;49.166;8.076;2022-11-20T15:22:41;13.30;59.50
46366;DHT22;32073;49.166;8.076;2022-11-20T15:26:42;13.30;59.50
46366;DHT22;32073;49.166;8.076;2022-11-20T15:30:44;13.40;59.50
46366;DHT22;32073;49.166;8.076;2022-11-20T15:34:45;13.30;59.40
46366;DHT22;32073;49.166;8.076;2022-11-20T15:38:46;13.30;59.40
46366;DHT22;32073;49.166;8.076;2022-11-20T15:42:46;13.30;59.40
46366;DHT22;32073;49.166;8.076;2022-11-20T15:47:06;13.30;59.30
46366;DHT22;32073;49.166;8.076;2022-11-20T15:55:11;13.20;59.30
46366;DHT22;32073;49.166;8.076;2022-11-20T15:59:12;13.20;59.30
46366;DHT22;32073;49.166;8.076;2022-11-20T16:03:14;13.20;59.20
46366;DHT22;32073;49.166;8.076;2022-11-20T16:07:16;13.20;59.20
46366;DHT22;32073;49.166;8.076;2022-11-20T16:11:17;13.20;59.20
46366;DHT22;32073;49.166;8.076;2022-11-20T16:15:18;13.20;59.50
46366;DHT22;32073;49.166;8.076;2022-11-20T16:19:37;13.20;59.20
46366;DHT22;32073;49.166;8.076;2022-11-20T16:23:37;13.20;59.20
46366;DHT22;32073;49.166;8.076;2022-11-20T16:27:38;13.20;59.20
46366;DHT22;32073;49.166;8.076;2022-11-20T16:31:38;13.20;59.20
46366;DHT22;32073;49.166;8.076;2022-11-20T16:35:39;13.30;59.20
46366;DHT22;32073;49.166;8.076;2022-11-20T16:39:40;13.30;59.20
46366;DHT22;32073;49.166;8.076;2022-11-20T16:43:48;13.20;59.20
46366;DHT22;32073;49.166;8.076;2022-11-20T16:47:53;13.20;59.20
46366;DHT22;32073;49.166;8.076;2022-11-20T16:51:54;13.20;59.10
46366;DHT22;32073;49.166;8.076;2022-11-20T16:55:54;13.20;59.10
46366;DHT22;32073;49.166;8.076;2022-11-20T16:59:55;13.20;59.20
46366;DHT22;32073;49.166;8.076;2022-11-20T17:04:00;13.30;59.30
46366;DHT22;32073;49.166;8.076;2022-11-20T17:08:01;13.10;59.20
46366;DHT22;32073;49.166;8.076;2022-11-20T17:12:02;13.10;59.20
46366;DHT22;32073;49.166;8.076;2022-11-20T17:16:04;13.10;59.20
46366;DHT22;32073;49.166;8.076;2022-11-20T17:20:06;13.10;59.20
46366;DHT22;32073;49.166;8.076;2022-11-20T17:24:08;13.00;59.10
46366;DHT22;32073;49.166;8.076;2022-11-20T17:28:10;13.00;59.70
46366;DHT22;32073;49.166;8.076;2022-11-20T17:32:11;13.00;59.10
46366;DHT22;32073;49.166;8.076;2022-11-20T17:36:13;13.00;59.10
46366;DHT22;32073;49.166;8.076;2022-11-20T17:40:14;12.90;59.10
46366;DHT22;32073;49.166;8.076;2022-11-20T17:44:15;12.90;59.10
46366;DHT22;32073;49.166;8.076;2022-11-20T17:48:16;12.80;59.00
46366;DHT22;32073;49.166;8.076;2022-11-20T17:52:16;12.80;59.10
46366;DHT22;32073;49.166;8.076;2022-11-20T17:56:17;12.70;59.10
46366;DHT22;32073;49.166;8.076;2022-11-20T18:00:37;12.80;59.20
46366;DHT22;32073;49.166;8.076;2022-11-20T18:04:37;12.70;59.10
46366;DHT22;32073;49.166;8.076;2022-11-20T18:08:38;12.70;59.10
46366;DHT22;32073;49.166;8.076;2022-11-20T18:12:39;12.60;59.00
46366;DHT22;32073;49.166;8.076;2022-11-20T18:16:43;12.60;59.00
46366;DHT22;32073;49.166;8.076;2022-11-20T18:20:52;12.50;59.00
46366;DHT22;32073;49.166;8.076;2022-11-20T18:24:52;12.40;59.00
46366;DHT22;32073;49.166;8.076;2022-11-20T18:28:53;12.30;59.00
46366;DHT22;32073;49.166;8.076;2022-11-20T18:32:54;12.30;59.10
46366;DHT22;32073;49.166;8.076;2022-11-20T18:36:55;12.20;59.10
46366;DHT22;32073;49.166;8.076;2022-11-20T18:40:57;12.10;59.10
46366;DHT22;32073;49.166;8.076;2022-11-20T18:44:58;12.10;59.30
46366;DHT22;32073;49.166;8.076;2022-11-20T18:48:59;12.10;59.40
46366;DHT22;32073;49.166;8.076;2022-11-20T18:53:00;12.00;59.30
46366;DHT22;32073;49.166;8.076;2022-11-20T18:57:00;12.00;59.30
46366;DHT22;32073;49.166;8.076;2022-11-20T19:01:05;12.00;59.40
46366;DHT22;32073;49.166;8.076;2022-11-20T19:05:06;11.90;59.40
46366;DHT22;32073;49.166;8.076;2022-11-20T19:09:07;11.90;59.40
46366;DHT22;32073;49.166;8.076;2022-11-20T19:13:09;11.80;59.40
46366;DHT22;32073;49.166;8.076;2022-11-20T19:17:10;11.80;59.50
46366;DHT22;32073;49.166;8.076;2022-11-20T19:21:16;11.80;59.70
46366;DHT22;32073;49.166;8.076;2022-11-20T19:25:21;11.80;59.80
46366;DHT22;32073;49.166;8.076;2022-11-20T19:29:23;11.80;59.80
46366;DHT22;32073;49.166;8.076;2022-11-20T19:33:24;11.80;59.80
46366;DHT22;32073;49.166;8.076;2022-11-20T19:37:25;11.80;60.40
46366;DHT22;32073;49.166;8.076;2022-11-20T19:41:29;11.80;59.80
46366;DHT22;32073;49.166;8.076;2022-11-20T19:45:30;11.80;59.80
46366;DHT22;32073;49.166;8.076;2022-11-20T19:49:31;11.80;59.90
46366;DHT22;32073;49.166;8.076;2022-11-20T19:53:35;11.80;60.00
46366;DHT22;32073;49.166;8.076;2022-11-20T19:57:35;11.80;60.00
46366;DHT22;32073;49.166;8.076;2022-11-20T20:01:36;11.80;60.00
46366;DHT22;32073;49.166;8.076;2022-11-20T20:05:36;11.80;60.10
46366;DHT22;32073;49.166;8.076;2022-11-20T20:09:37;11.80;60.10
46366;DHT22;32073;49.166;8.076;2022-11-20T20:13:38;11.80;60.10
46366;DHT22;32073;49.166;8.076;2022-11-20T20:17:39;11.80;60.10
46366;DHT22;32073;49.166;8.076;2022-11-20T20:21:39;11.80;60.00
46366;DHT22;32073;49.166;8.076;2022-11-20T20:25:40;11.70;60.00
46366;DHT22;32073;49.166;8.076;2022-11-20T20:29:41;11.70;60.10
46366;DHT22;32073;49.166;8.076;2022-11-20T20:33:42;11.60;60.10
46366;DHT22;32073;49.166;8.076;2022-11-20T20:37:43;11.60;60.20
46366;DHT22;32073;49.166;8.076;2022-11-20T20:41:44;11.60;60.30
46366;DHT22;32073;49.166;8.076;2022-11-20T20:45:45;11.60;60.40
46366;DHT22;32073;49.166;8.076;2022-11-20T20:49:47;11.70;60.50
46366;DHT22;32073;49.166;8.076;2022-11-20T20:53:48;11.70;60.60
46366;DHT22;32073;49.166;8.076;2022-11-20T20:57:49;11.70;60.70
46366;DHT22;32073;49.166;8.076;2022-11-20T21:01:50;11.80;60.70
46366;DHT22;32073;49.166;8.076;2022-11-20T21:05:54;11.80;60.70
46366;DHT22;32073;49.166;8.076;2022-11-20T21:09:56;11.80;60.60
46366;DHT22;32073;49.166;8.076;2022-11-20T21:13:57;11.80;60.70
46366;DHT22;32073;49.166;8.076;2022-11-20T21:17:57;11.80;60.70
46366;DHT22;32073;49.166;8.076;2022-11-20T21:21:58;11.80;60.70
46366;DHT22;32073;49.166;8.076;2022-11-20T21:25:59;11.80;60.60
46366;DHT22;32073;49.166;8.076;2022-11-20T21:30:01;11.80;60.60
46366;DHT22;32073;49.166;8.076;2022-11-20T21:34:02;11.80;60.50
46366;DHT22;32073;49.166;8.076;2022-11-20T21:38:02;11.80;60.50
46366;DHT22;32073;49.166;8.076;2022-11-20T21:42:03;11.70;60.50
46366;DHT22;32073;49.166;8.076;2022-11-20T21:50:05;11.70;60.60
46366;DHT22;32073;49.166;8.076;2022-11-20T21:54:08;11.70;60.60
46366;DHT22;32073;49.166;8.076;2022-11-20T21:58:09;11.70;60.70
46366;DHT22;32073;49.166;8.076;2022-11-20T22:02:10;11.70;60.80
46366;DHT22;32073;49.166;8.076;2022-11-20T22:06:11;11.70;60.80
46366;DHT22;32073;49.166;8.076;2022-11-20T22:10:12;11.70;60.80
46366;DHT22;32073;49.166;8.076;2022-11-20T22:14:13;11.70;60.80
46366;DHT22;32073;49.166;8.076;2022-11-20T22:18:19;11.70;60.80
46366;DHT22;32073;49.166;8.076;2022-11-20T22:22:21;11.70;60.80
46366;DHT22;32073;49.166;8.076;2022-11-20T22:26:23;11.80;60.80
46366;DHT22;32073;49.166;8.076;2022-11-20T22:30:25;11.70;60.70
46366;DHT22;32073;49.166;8.076;2022-11-20T22:34:26;11.70;60.70
46366;DHT22;32073;49.166;8.076;2022-11-20T22:38:27;11.70;60.80
46366;DHT22;32073;49.166;8.076;2022-11-20T22:42:28;11.70;60.80
46366;DHT22;32073;49.166;8.076;2022-11-20T22:46:29;11.70;60.90
46366;DHT22;32073;49.166;8.076;2022-11-20T22:50:31;11.80;60.90
46366;DHT22;32073;49.166;8.076;2022-11-20T22:54:32;11.80;60.80
46366;DHT22;32073;49.166;8.076;2022-11-20T22:58:33;11.80;60.80
46366;DHT22;32073;49.166;8.076;2022-11-20T23:02:34;11.80;60.90
46366;DHT22;32073;49.166;8.076;2022-11-20T23:06:35;11.80;60.90
46366;DHT22;32073;49.166;8.076;2022-11-20T23:10:35;11.80;60.90
46366;DHT22;32073;49.166;8.076;2022-11-20T23:14:36;11.80;61.00
46366;DHT22;32073;49.166;8.076;2022-11-20T23:18:37;11.80;61.00
46366;DHT22;32073;49.166;8.076;2022-11-20T23:22:37;11.80;61.00
46366;DHT22;32073;49.166;8.076;2022-11-20T23:26:39;11.80;60.90
46366;DHT22;32073;49.166;8.076;2022-11-20T23:30:40;11.80;60.80
46366;DHT22;32073;49.166;8.076;2022-11-20T23:34:40;11.80;60.80
46366;DHT22;32073;49.166;8.076;2022-11-20T23:38:41;11.70;60.80
46366;DHT22;32073;49.166;8.076;2022-11-20T23:42:42;11.70;60.80
46366;DHT22;32073;49.166;8.076;2022-11-20T23:47:02;11.70;60.90
46366;DHT22;32073;49.166;8.076;2022-11-20T23:51:03;11.70;61.00
46366;DHT22;32073;49.166;8.076;2022-11-20T23:55:05;11.70;61.00
46366;DHT22;32073;49.166;8.076;2022-11-20T23:59:06;11.80;61.00
